createdAt,value
2023-05-20T00:00:49.076Z,13.90
2023-05-20T00:03:22.793Z,13.90
2023-05-20T00:05:49.916Z,13.90
2023-05-20T00:08:19.352Z,13.80
2023-05-20T00:10:46.283Z,13.80
2023-05-20T00:13:13.230Z,13.80
2023-05-20T00:15:40.286Z,13.80
2023-05-20T00:18:07.719Z,13.70
2023-05-20T00:20:34.679Z,13.70
2023-05-20T00:23:01.910Z,13.60
2023-05-20T00:25:30.825Z,13.60
2023-05-20T00:27:57.770Z,13.60
2023-05-20T00:30:24.839Z,13.60
2023-05-20T00:32:51.924Z,13.50
2023-05-20T00:35:18.903Z,13.50
2023-05-20T00:37:45.852Z,13.40
2023-05-20T00:40:15.404Z,13.40
2023-05-20T00:42:43.815Z,13.40
2023-05-20T00:45:11.159Z,13.30
2023-05-20T00:47:39.153Z,13.30
2023-05-20T00:50:07.258Z,13.30
2023-05-20T00:52:34.505Z,13.20
2023-05-20T00:55:01.557Z,13.20
2023-05-20T00:57:28.887Z,13.20
2023-05-20T00:59:56.258Z,13.20
2023-05-20T01:02:23.519Z,13.10
2023-05-20T01:04:50.687Z,13.10
2023-05-20T01:07:18.620Z,13.10
2023-05-20T01:09:46.017Z,13.00
2023-05-20T01:12:21.302Z,13.00
2023-05-20T01:15:13.224Z,13.00
2023-05-20T01:17:45.024Z,12.90
2023-05-20T01:20:14.535Z,12.90
2023-05-20T01:22:48.659Z,12.80
2023-05-20T01:25:15.614Z,12.80
2023-05-20T01:27:42.636Z,12.80
2023-05-20T01:30:09.844Z,12.70
2023-05-20T01:32:48.581Z,12.70
2023-05-20T01:35:17.463Z,12.70
2023-05-20T01:37:45.198Z,12.60
2023-05-20T01:40:15.774Z,12.60
2023-05-20T01:42:44.385Z,12.60
2023-05-20T01:45:11.925Z,12.50
2023-05-20T01:47:39.005Z,12.50
2023-05-20T01:50:07.140Z,12.50
2023-05-20T01:52:35.286Z,12.50
2023-05-20T01:55:02.830Z,12.40
2023-05-20T01:57:30.134Z,12.40
2023-05-20T01:59:57.098Z,12.40
2023-05-20T02:02:24.177Z,12.30
2023-05-20T02:04:53.344Z,12.30
2023-05-20T02:07:20.288Z,12.30
2023-05-20T02:09:48.103Z,12.30
2023-05-20T02:12:17.746Z,12.20
2023-05-20T02:14:46.738Z,12.20
2023-05-20T02:17:16.952Z,12.30
2023-05-20T02:19:45.369Z,12.20
2023-05-20T02:22:12.282Z,12.20
2023-05-20T02:24:39.313Z,12.20
2023-05-20T02:27:06.923Z,12.20
2023-05-20T02:29:34.302Z,12.20
2023-05-20T02:32:01.244Z,12.10
2023-05-20T02:34:30.436Z,12.10
2023-05-20T02:36:57.629Z,12.20
2023-05-20T02:39:25.010Z,12.10
2023-05-20T02:41:51.948Z,12.10
2023-05-20T02:44:18.887Z,12.10
2023-05-20T02:46:45.843Z,12.10
2023-05-20T02:49:12.792Z,12.10
2023-05-20T02:51:40.902Z,12.00
2023-05-20T02:54:07.868Z,12.00
2023-05-20T02:56:34.840Z,12.00
2023-05-20T02:59:04.738Z,12.10
2023-05-20T03:01:33.755Z,12.00
2023-05-20T03:04:01.202Z,12.00
2023-05-20T03:06:30.154Z,12.00
2023-05-20T03:08:57.087Z,12.00
2023-05-20T03:11:24.832Z,12.00
2023-05-20T03:13:51.792Z,12.00
2023-05-20T03:16:18.964Z,12.00
2023-05-20T03:18:46.362Z,12.00
2023-05-20T03:21:14.148Z,12.00
2023-05-20T03:23:41.328Z,12.00
2023-05-20T03:26:08.686Z,12.00
2023-05-20T03:28:36.582Z,12.00
2023-05-20T03:31:04.478Z,12.00
2023-05-20T03:33:34.606Z,12.00
2023-05-20T03:36:01.728Z,12.10
2023-05-20T03:38:28.713Z,12.10
2023-05-20T03:40:55.638Z,12.10
2023-05-20T03:43:22.617Z,12.10
2023-05-20T03:45:49.543Z,12.20
2023-05-20T03:48:16.545Z,12.20
2023-05-20T03:50:43.597Z,12.20
2023-05-20T03:53:11.248Z,12.30
2023-05-20T03:55:42.408Z,12.30
2023-05-20T03:58:10.376Z,12.40
2023-05-20T04:00:37.341Z,12.40
2023-05-20T04:03:04.435Z,12.40
2023-05-20T04:05:32.317Z,12.50
2023-05-20T04:08:01.441Z,12.60
2023-05-20T04:10:28.389Z,12.80
2023-05-20T04:12:55.482Z,12.90
2023-05-20T04:15:25.117Z,13.20
2023-05-20T04:17:55.922Z,13.40
2023-05-20T04:20:24.336Z,13.70
2023-05-20T04:22:54.210Z,13.90
2023-05-20T04:25:22.204Z,14.00
2023-05-20T04:27:49.758Z,14.10
2023-05-20T04:30:18.516Z,14.30
2023-05-20T04:32:45.509Z,14.40
2023-05-20T04:35:13.810Z,14.50
2023-05-20T04:37:47.830Z,14.60
2023-05-20T04:40:15.115Z,14.70
2023-05-20T04:42:43.624Z,14.80
2023-05-20T04:45:12.434Z,14.80
2023-05-20T04:47:40.406Z,14.90
2023-05-20T04:50:11.786Z,15.00
2023-05-20T04:52:43.013Z,15.00
2023-05-20T04:55:10.709Z,15.00
2023-05-20T04:57:42.804Z,15.10
2023-05-20T05:00:12.311Z,15.10
2023-05-20T05:02:40.543Z,15.10
2023-05-20T05:05:08.233Z,15.10
2023-05-20T05:07:35.811Z,15.20
2023-05-20T05:10:03.058Z,15.30
2023-05-20T05:12:31.618Z,15.30
2023-05-20T05:14:59.388Z,15.40
2023-05-20T05:17:28.739Z,15.50
2023-05-20T05:19:56.991Z,15.50
2023-05-20T05:22:24.094Z,15.60
2023-05-20T05:24:52.307Z,15.70
2023-05-20T05:27:19.273Z,15.70
2023-05-20T05:29:46.243Z,15.80
2023-05-20T05:32:13.288Z,15.80
2023-05-20T05:34:40.908Z,15.90
2023-05-20T05:37:07.850Z,15.90
2023-05-20T05:39:37.576Z,15.80
2023-05-20T05:42:05.481Z,15.80
2023-05-20T05:44:33.511Z,15.90
2023-05-20T05:47:01.032Z,15.90
2023-05-20T05:49:28.217Z,15.90
2023-05-20T05:51:55.258Z,15.90
2023-05-20T05:54:22.260Z,15.90
2023-05-20T05:56:51.918Z,15.90
2023-05-20T05:59:19.870Z,15.90
2023-05-20T06:01:46.971Z,15.90
2023-05-20T06:04:15.427Z,16.00
2023-05-20T06:06:42.618Z,16.00
2023-05-20T06:09:09.622Z,16.00
2023-05-20T06:11:37.121Z,16.10
2023-05-20T06:14:04.133Z,16.20
2023-05-20T06:16:31.489Z,16.20
2023-05-20T06:19:02.642Z,16.30
2023-05-20T06:21:32.548Z,16.40
2023-05-20T06:23:59.495Z,16.50
2023-05-20T06:26:26.783Z,16.60
2023-05-20T06:28:53.874Z,16.60
2023-05-20T06:31:21.066Z,16.70
2023-05-20T06:33:48.549Z,16.80
2023-05-20T06:36:17.378Z,16.80
2023-05-20T06:38:44.400Z,16.80
2023-05-20T06:41:13.633Z,16.90
2023-05-20T06:43:40.754Z,16.90
2023-05-20T06:46:29.362Z,16.90
2023-05-20T06:49:02.163Z,16.90
2023-05-20T06:51:29.805Z,16.90
2023-05-20T06:53:56.976Z,16.90
2023-05-20T06:56:24.237Z,16.90
2023-05-20T06:58:51.197Z,17.00
2023-05-20T07:01:18.507Z,17.00
2023-05-20T07:03:46.492Z,17.00
2023-05-20T07:06:13.746Z,17.00
2023-05-20T07:08:41.129Z,17.00
2023-05-20T07:11:08.935Z,17.00
2023-05-20T07:13:35.989Z,17.10
2023-05-20T07:16:02.934Z,17.10
2023-05-20T07:18:30.072Z,17.10
2023-05-20T07:20:57.747Z,17.10
2023-05-20T07:23:43.382Z,17.00
2023-05-20T07:26:10.563Z,17.00
2023-05-20T07:28:39.139Z,17.00
2023-05-20T07:31:06.341Z,17.00
2023-05-20T07:33:39.282Z,17.00
2023-05-20T07:36:07.963Z,17.00
2023-05-20T07:38:36.315Z,17.00
2023-05-20T07:41:07.034Z,17.00
2023-05-20T07:43:34.549Z,17.00
2023-05-20T07:46:03.625Z,17.00
2023-05-20T07:48:30.636Z,17.10
2023-05-20T07:50:59.189Z,17.10
2023-05-20T07:53:27.008Z,17.20
2023-05-20T07:55:54.499Z,17.20
2023-05-20T07:58:21.683Z,17.30
2023-05-20T08:00:49.998Z,17.30
2023-05-20T08:03:17.393Z,17.40
2023-05-20T08:05:54.875Z,17.40
2023-05-20T08:08:22.288Z,17.50
2023-05-20T08:10:57.030Z,17.50
2023-05-20T08:13:25.924Z,17.60
2023-05-20T08:15:54.794Z,17.60
2023-05-20T08:18:22.574Z,17.70
2023-05-20T08:20:50.254Z,17.70
2023-05-20T08:23:17.326Z,17.70
2023-05-20T08:25:46.805Z,17.80
2023-05-20T08:28:14.221Z,17.90
2023-05-20T08:30:41.740Z,18.00
2023-05-20T08:33:08.968Z,18.00
2023-05-20T08:35:37.781Z,18.00
2023-05-20T08:38:05.389Z,18.10
2023-05-20T08:40:35.063Z,18.20
2023-05-20T08:43:02.468Z,18.20
2023-05-20T08:45:33.602Z,18.30
2023-05-20T08:48:05.865Z,18.40
2023-05-20T08:50:33.052Z,18.40
2023-05-20T08:53:00.453Z,18.40
2023-05-20T08:55:43.882Z,18.40
2023-05-20T08:58:10.988Z,18.50
2023-05-20T09:00:38.429Z,18.50
2023-05-20T09:03:05.566Z,18.50
2023-05-20T09:05:32.928Z,18.50
2023-05-20T09:08:10.853Z,18.50
2023-05-20T09:10:40.027Z,18.60
2023-05-20T09:13:08.482Z,18.70
2023-05-20T09:15:37.112Z,18.70
2023-05-20T09:18:07.635Z,18.80
2023-05-20T09:20:41.202Z,18.90
2023-05-20T09:23:10.135Z,19.00
2023-05-20T09:25:37.903Z,19.10
2023-05-20T09:28:08.829Z,19.20
2023-05-20T09:30:36.102Z,19.30
2023-05-20T09:33:05.767Z,19.30
2023-05-20T09:35:39.125Z,19.40
2023-05-20T09:38:10.018Z,19.50
2023-05-20T09:40:41.166Z,19.60
2023-05-20T09:43:08.788Z,19.60
2023-05-20T09:45:36.132Z,19.60
2023-05-20T09:48:05.890Z,19.70
2023-05-20T09:50:33.266Z,19.70
2023-05-20T09:53:04.080Z,19.80
2023-05-20T09:55:31.328Z,19.80
2023-05-20T09:58:02.661Z,19.80
2023-05-20T10:00:30.133Z,19.80
2023-05-20T10:02:57.716Z,19.90
2023-05-20T10:05:39.895Z,19.90
2023-05-20T10:08:57.289Z,19.90
2023-05-20T10:11:56.565Z,20.00
2023-05-20T10:14:44.087Z,20.00
2023-05-20T10:17:46.780Z,20.00
2023-05-20T10:20:13.902Z,20.10
2023-05-20T10:22:41.032Z,20.20
2023-05-20T10:25:13.011Z,20.20
2023-05-20T10:27:49.082Z,20.30
2023-05-20T10:30:23.579Z,20.30
2023-05-20T10:32:57.451Z,20.40
2023-05-20T10:35:29.276Z,20.50
2023-05-20T10:38:13.134Z,20.50
2023-05-20T10:40:40.780Z,20.50
2023-05-20T10:43:13.262Z,20.50
2023-05-20T10:45:51.816Z,20.50
2023-05-20T10:48:29.216Z,20.50
2023-05-20T10:50:58.516Z,20.60
2023-05-20T10:53:34.049Z,20.60
2023-05-20T10:56:01.720Z,20.60
2023-05-20T10:58:37.562Z,20.60
2023-05-20T11:01:04.782Z,20.60
2023-05-20T11:03:33.328Z,20.70
2023-05-20T11:06:00.260Z,20.70
2023-05-20T11:08:33.287Z,20.70
2023-05-20T11:11:00.278Z,20.80
2023-05-20T11:13:27.476Z,20.80
2023-05-20T11:15:55.478Z,20.90
2023-05-20T11:18:22.469Z,20.90
2023-05-20T11:20:49.562Z,20.90
2023-05-20T11:23:16.690Z,20.90
2023-05-20T11:25:43.697Z,21.00
2023-05-20T11:28:14.381Z,21.00
2023-05-20T11:30:43.340Z,21.10
2023-05-20T11:33:14.090Z,21.10
2023-05-20T11:35:52.202Z,21.10
2023-05-20T11:38:20.322Z,21.10
2023-05-20T11:40:55.120Z,21.10
2023-05-20T11:43:24.224Z,21.00
2023-05-20T11:45:59.876Z,21.00
2023-05-20T11:48:27.303Z,20.90
2023-05-20T11:50:56.214Z,20.90
2023-05-20T11:53:24.655Z,20.80
2023-05-20T11:55:55.644Z,20.80
2023-05-20T11:58:29.895Z,20.80
2023-05-20T12:01:05.628Z,20.70
2023-05-20T12:03:44.132Z,20.70
2023-05-20T12:06:13.530Z,20.70
2023-05-20T12:08:40.574Z,20.70
2023-05-20T12:11:07.549Z,20.70
2023-05-20T12:13:35.460Z,20.80
2023-05-20T12:16:02.849Z,20.80
2023-05-20T12:18:29.818Z,20.80
2023-05-20T12:20:56.757Z,20.80
2023-05-20T12:23:23.714Z,20.90
2023-05-20T12:25:50.826Z,20.90
2023-05-20T12:28:17.803Z,21.00
2023-05-20T12:30:44.733Z,21.10
2023-05-20T12:33:11.660Z,21.00
2023-05-20T12:35:43.574Z,21.00
2023-05-20T12:38:11.142Z,21.10
2023-05-20T12:40:38.569Z,21.10
2023-05-20T12:43:06.240Z,21.00
2023-05-20T12:45:33.189Z,21.00
2023-05-20T12:48:00.394Z,21.10
2023-05-20T12:50:27.817Z,21.10
2023-05-20T12:52:54.934Z,21.20
2023-05-20T12:55:21.969Z,21.10
2023-05-20T12:57:48.947Z,21.20
2023-05-20T13:00:16.627Z,21.10
2023-05-20T13:02:44.126Z,21.10
2023-05-20T13:05:11.543Z,21.10
2023-05-20T13:07:38.818Z,21.20
2023-05-20T13:10:07.387Z,21.20
2023-05-20T13:12:35.137Z,21.20
2023-05-20T13:15:02.205Z,21.20
2023-05-20T13:17:29.388Z,21.30
2023-05-20T13:19:56.487Z,21.30
2023-05-20T13:22:23.611Z,21.40
2023-05-20T13:24:50.566Z,21.30
2023-05-20T13:27:17.493Z,21.30
2023-05-20T13:29:44.599Z,21.40
2023-05-20T13:32:11.573Z,21.40
2023-05-20T13:34:39.331Z,21.40
2023-05-20T13:37:06.924Z,21.40
2023-05-20T13:39:33.849Z,21.40
2023-05-20T13:42:00.909Z,21.50
2023-05-20T13:44:27.857Z,21.60
2023-05-20T13:46:54.847Z,21.60
2023-05-20T13:49:22.264Z,21.70
2023-05-20T13:51:49.185Z,21.80
2023-05-20T13:54:16.149Z,21.80
2023-05-20T13:56:43.182Z,21.90
2023-05-20T13:59:10.163Z,21.90
2023-05-20T14:01:40.468Z,22.00
2023-05-20T14:04:08.271Z,22.00
2023-05-20T14:06:35.294Z,22.10
2023-05-20T14:09:03.173Z,22.10
2023-05-20T14:11:30.124Z,22.20
2023-05-20T14:13:57.047Z,22.20
2023-05-20T14:16:24.130Z,22.20
2023-05-20T14:18:51.124Z,22.20
2023-05-20T14:21:19.167Z,22.20
2023-05-20T14:23:46.718Z,22.20
2023-05-20T14:26:13.696Z,22.30
2023-05-20T14:28:40.779Z,22.30
2023-05-20T14:31:09.676Z,22.20
2023-05-20T14:33:36.962Z,22.30
2023-05-20T14:36:04.251Z,22.40
2023-05-20T14:38:31.301Z,22.40
2023-05-20T14:40:58.232Z,22.40
2023-05-20T14:43:25.821Z,22.40
2023-05-20T14:45:52.946Z,22.40
2023-05-20T14:48:19.985Z,22.40
2023-05-20T14:50:48.934Z,22.40
2023-05-20T14:53:17.384Z,22.30
2023-05-20T14:55:44.339Z,22.30
2023-05-20T14:58:11.674Z,22.30
2023-05-20T15:00:39.576Z,22.30
2023-05-20T15:03:06.780Z,22.20
2023-05-20T15:05:33.962Z,22.10
2023-05-20T15:08:01.044Z,22.20
2023-05-20T15:10:28.069Z,22.10
2023-05-20T15:12:55.216Z,22.10
2023-05-20T15:15:22.305Z,22.10
2023-05-20T15:17:49.281Z,22.10
2023-05-20T15:20:16.370Z,22.10
2023-05-20T15:22:47.708Z,22.10
2023-05-20T15:25:15.314Z,22.10
2023-05-20T15:27:42.502Z,22.20
2023-05-20T15:30:10.548Z,22.20
2023-05-20T15:32:37.674Z,22.20
2023-05-20T15:35:05.355Z,22.30
2023-05-20T15:37:32.311Z,22.30
2023-05-20T15:39:59.273Z,22.40
2023-05-20T15:42:26.869Z,22.40
2023-05-20T15:44:53.790Z,22.50
2023-05-20T15:47:21.404Z,22.50
2023-05-20T15:49:48.489Z,22.50
2023-05-20T15:52:15.527Z,22.60
2023-05-20T15:54:42.587Z,22.60
2023-05-20T15:57:10.101Z,22.60
2023-05-20T15:59:37.074Z,22.60
2023-05-20T16:02:04.178Z,22.60
2023-05-20T16:04:32.514Z,22.60
2023-05-20T16:06:59.664Z,22.60
2023-05-20T16:09:26.621Z,22.50
2023-05-20T16:11:53.564Z,22.50
2023-05-20T16:14:20.516Z,22.40
2023-05-20T16:16:47.482Z,22.30
2023-05-20T16:19:14.620Z,22.30
2023-05-20T16:21:41.572Z,22.20
2023-05-20T16:24:08.509Z,22.10
2023-05-20T16:26:35.433Z,22.00
2023-05-20T16:29:02.416Z,21.90
2023-05-20T16:31:29.413Z,21.90
2023-05-20T16:33:56.511Z,22.00
2023-05-20T16:36:23.565Z,22.10
2023-05-20T16:38:50.567Z,22.30
2023-05-20T16:41:17.519Z,22.50
2023-05-20T16:43:44.599Z,22.70
2023-05-20T16:46:14.302Z,22.80
2023-05-20T16:48:42.580Z,23.00
2023-05-20T16:51:09.515Z,23.20
2023-05-20T16:53:36.486Z,23.30
2023-05-20T16:56:06.023Z,23.50
2023-05-20T16:58:32.971Z,23.50
2023-05-20T17:01:00.017Z,23.70
2023-05-20T17:03:26.974Z,23.60
2023-05-20T17:05:53.962Z,23.50
2023-05-20T17:08:20.964Z,23.40
2023-05-20T17:10:51.237Z,23.40
2023-05-20T17:13:19.405Z,23.30
2023-05-20T17:15:46.322Z,23.10
2023-05-20T17:18:13.337Z,23.10
2023-05-20T17:20:40.446Z,23.10
2023-05-20T17:23:07.352Z,23.10
2023-05-20T17:25:34.291Z,23.10
2023-05-20T17:28:01.299Z,23.00
2023-05-20T17:30:28.318Z,22.90
2023-05-20T17:32:57.375Z,22.80
2023-05-20T17:35:28.060Z,22.70
2023-05-20T17:37:55.207Z,22.50
2023-05-20T17:40:22.300Z,22.30
2023-05-20T17:42:49.242Z,22.20
2023-05-20T17:45:16.279Z,22.00
2023-05-20T17:47:43.232Z,21.90
2023-05-20T17:50:10.898Z,21.90
2023-05-20T17:52:37.853Z,21.70
2023-05-20T17:55:06.590Z,21.60
2023-05-20T17:57:33.786Z,21.60
2023-05-20T18:00:00.728Z,21.40
2023-05-20T18:02:27.720Z,21.40
2023-05-20T18:04:54.751Z,21.20
2023-05-20T18:07:21.691Z,21.10
2023-05-20T18:09:48.637Z,21.00
2023-05-20T18:12:15.572Z,20.90
2023-05-20T18:14:42.486Z,20.80
2023-05-20T18:17:09.609Z,20.70
2023-05-20T18:19:36.541Z,20.70
2023-05-20T18:22:03.494Z,20.60
2023-05-20T18:24:30.649Z,20.50
2023-05-20T18:26:57.633Z,20.50
2023-05-20T18:29:26.752Z,20.40
2023-05-20T18:31:53.771Z,20.40
2023-05-20T18:34:20.747Z,20.40
2023-05-20T18:36:47.728Z,20.30
2023-05-20T18:39:20.171Z,20.20
2023-05-20T18:41:50.001Z,20.20
2023-05-20T18:44:22.812Z,20.10
2023-05-20T18:46:49.774Z,20.10
2023-05-20T18:49:16.737Z,20.00
2023-05-20T18:51:43.691Z,19.90
2023-05-20T18:54:10.698Z,19.90
2023-05-20T18:56:37.849Z,19.80
2023-05-20T18:59:04.783Z,19.80
2023-05-20T19:01:33.865Z,19.70
2023-05-20T19:04:01.087Z,19.60
2023-05-20T19:06:28.206Z,19.60
2023-05-20T19:08:55.221Z,19.50
2023-05-20T19:11:22.169Z,19.50
2023-05-20T19:13:49.127Z,19.40
2023-05-20T19:16:16.435Z,19.40
2023-05-20T19:18:43.497Z,19.30
2023-05-20T19:21:10.698Z,19.20
2023-05-20T19:23:37.647Z,19.20
2023-05-20T19:26:04.766Z,19.10
2023-05-20T19:28:31.672Z,19.00
2023-05-20T19:30:58.602Z,18.90
2023-05-20T19:33:25.611Z,18.90
2023-05-20T19:35:52.597Z,18.80
2023-05-20T19:38:19.580Z,18.70
2023-05-20T19:40:47.679Z,18.70
2023-05-20T19:43:14.803Z,18.60
2023-05-20T19:45:41.788Z,18.50
2023-05-20T19:48:09.585Z,18.50
2023-05-20T19:50:37.331Z,18.40
2023-05-20T19:53:07.195Z,18.30
2023-05-20T19:55:36.249Z,18.20
2023-05-20T19:58:03.575Z,18.20
2023-05-20T20:00:30.923Z,18.20
2023-05-20T20:02:59.053Z,18.10
2023-05-20T20:05:26.566Z,18.00
2023-05-20T20:07:53.590Z,18.00
2023-05-20T20:10:20.605Z,17.90
2023-05-20T20:12:47.586Z,17.80
2023-05-20T20:15:14.780Z,17.80
2023-05-20T20:17:46.021Z,17.70
2023-05-20T20:20:16.743Z,17.70
2023-05-20T20:22:43.678Z,17.70
2023-05-20T20:25:13.808Z,17.60
2023-05-20T20:27:43.870Z,17.60
2023-05-20T20:30:15.100Z,17.60
2023-05-20T20:32:42.732Z,17.50
2023-05-20T20:35:10.812Z,17.50
2023-05-20T20:37:38.378Z,17.50
2023-05-20T20:40:13.391Z,17.40
2023-05-20T20:42:42.387Z,17.40
2023-05-20T20:45:12.272Z,17.40
2023-05-20T20:47:40.985Z,17.40
2023-05-20T20:50:08.928Z,17.30
2023-05-20T20:52:36.428Z,17.30
2023-05-20T20:55:04.505Z,17.30
2023-05-20T20:57:32.035Z,17.30
2023-05-20T20:59:58.973Z,17.20
2023-05-20T21:02:26.229Z,17.20
2023-05-20T21:04:53.179Z,17.20
2023-05-20T21:07:20.142Z,17.20
2023-05-20T21:09:47.133Z,17.10
2023-05-20T21:12:14.124Z,17.10
2023-05-20T21:14:42.899Z,17.00
2023-05-20T21:17:09.959Z,17.00
2023-05-20T21:19:36.919Z,16.90
2023-05-20T21:22:03.863Z,16.90
2023-05-20T21:24:30.883Z,16.80
2023-05-20T21:26:57.797Z,16.70
2023-05-20T21:29:25.239Z,16.70
2023-05-20T21:31:52.273Z,16.70
2023-05-20T21:34:19.186Z,16.60
2023-05-20T21:36:46.102Z,16.60
2023-05-20T21:39:13.014Z,16.60
2023-05-20T21:41:40.306Z,16.60
2023-05-20T21:44:07.327Z,16.60
2023-05-20T21:46:34.269Z,16.50
2023-05-20T21:49:01.211Z,16.50
2023-05-20T21:51:28.154Z,16.50
2023-05-20T21:53:55.069Z,16.40
2023-05-20T21:56:22.589Z,16.40
2023-05-20T21:58:49.526Z,16.40
2023-05-20T22:01:16.542Z,16.30
2023-05-20T22:03:46.702Z,16.30
2023-05-20T22:06:16.047Z,16.20
2023-05-20T22:08:43.763Z,16.20
2023-05-20T22:11:10.698Z,16.10
2023-05-20T22:13:41.432Z,16.10
2023-05-20T22:16:09.308Z,16.00
2023-05-20T22:18:36.266Z,16.00
2023-05-20T22:21:03.934Z,15.90
2023-05-20T22:23:31.043Z,15.90
2023-05-20T22:25:58.245Z,15.80
2023-05-20T22:28:26.169Z,15.80
2023-05-20T22:30:53.102Z,15.80
2023-05-20T22:33:20.057Z,15.80
2023-05-20T22:35:46.958Z,15.80
2023-05-20T22:38:13.895Z,15.70
2023-05-20T22:40:41.033Z,15.70
2023-05-20T22:43:07.967Z,15.70
2023-05-20T22:45:35.332Z,15.70
2023-05-20T22:48:03.679Z,15.60
2023-05-20T22:50:30.783Z,15.60
2023-05-20T22:52:57.682Z,15.60
2023-05-20T22:55:24.587Z,15.60
2023-05-20T22:57:51.637Z,15.60
2023-05-20T23:00:18.790Z,15.60
2023-05-20T23:02:49.553Z,15.60
2023-05-20T23:05:16.750Z,15.60
2023-05-20T23:07:44.786Z,15.60
2023-05-20T23:10:11.797Z,15.60
2023-05-20T23:12:38.737Z,15.50
2023-05-20T23:15:06.665Z,15.50
2023-05-20T23:17:33.625Z,15.50
2023-05-20T23:20:00.637Z,15.50
2023-05-20T23:22:27.582Z,15.50
2023-05-20T23:24:54.475Z,15.50
2023-05-20T23:27:21.397Z,15.60
2023-05-20T23:29:48.298Z,15.60
2023-05-20T23:32:15.353Z,15.60
2023-05-20T23:34:43.481Z,15.60
2023-05-20T23:37:10.425Z,15.60
2023-05-20T23:39:37.329Z,15.60
2023-05-20T23:42:05.146Z,15.60
2023-05-20T23:44:32.042Z,15.60
2023-05-20T23:46:58.963Z,15.60
2023-05-20T23:49:26.998Z,15.60
2023-05-20T23:51:54.134Z,15.60
2023-05-20T23:54:21.201Z,15.60
2023-05-20T23:56:48.206Z,15.60
2023-05-20T23:59:15.369Z,15.60
